Flight Track Log - Related Links

Times and Time Zones

All times are in EDT time to prevent confusion due to time zone crossing. See the XOJ750 flight status page for this flight to view local times or setup timezone preferences in your user account.

Time Position Orientation Groundspeed Altitude Reporting Facility
EDT Latitude Longitude Course Direction KTS MPH feet Rate Location/Type
Mon 05:33:06 PM 49.1622 -123.3206 198° South 254 292 6,800  Level Seattle Center
Mon 05:34:08 PM 49.0939 -123.3622 202° Southwest 313 360 10,100 2,098 Climbing Seattle Center
Mon 05:35:09 PM 49.0097 -123.3142 159° South 327 376 11,100 432 Climbing Seattle Center
Mon 05:35:59 PM 48.8833 -123.2667 166° South 400 460 10,900 -109 Descending Vancouver Center
Mon 05:36:00 PM 48.8259 -122.9839 162° South  Level Estimated
Mon 05:36:59 PM 48.7833 -123.2167 162° South 400 460 10,900  Level Vancouver Center
Mon 05:37:00 PM 48.7645 -122.9508 169° South  Level Estimated
Mon 05:37:59 PM 48.6667 -123.1667 164° South 410 472 10,900  Level Vancouver Center
Mon 05:38:00 PM 48.7027 -122.9819 198° South  Level FlightAware Approximate
Mon 05:39:13 PM 48.5650 -123.0978 156° South 406 467 11,000  Level Seattle Center
Mon 05:40:14 PM 48.4583 -123.0464 162° South 407 468 11,000  Level Seattle Center
Mon 05:41:15 PM 48.3519 -122.9950 162° South 406 467 11,000  Level Seattle Center
Mon 05:42:16 PM 48.2436 -122.9458 163° South 409 471 11,000  Level Seattle Center
Mon 05:42:47 PM 48.1736 -122.9136 163° South 402 463 11,000  Level Seattle Center
Mon 05:43:17 PM 48.1428 -122.8972 160° South 373 429 11,000  Level Seattle Center
Mon 05:43:54 PM 48.0758 -122.8675 163° South 301 346 11,000  Level Seattle Center
Mon 05:44:55 PM 47.9983 -122.8139 155° Southeast 314 361 11,000 -197 Level Seattle Center
Mon 05:45:56 PM 47.9219 -122.7467 149° Southeast 310 357 10,600 -492 Descending Seattle Center
Mon 05:46:57 PM 47.8500 -122.6806 148° Southeast 309 356 10,000 -298 Descending Seattle Center
Mon 05:47:57 PM 47.7789 -122.6175 149° Southeast 304 350 10,000  Level Seattle Center
Mon 05:48:58 PM 47.7017 -122.5478 149° Southeast 302 348 10,000  Level Seattle Center
Mon 05:49:59 PM 47.6269 -122.4803 149° Southeast 310 357 10,000  Level Seattle Center
Mon 05:51:00 PM 47.5469 -122.4619 171° South 301 346 10,000 -627 Level Seattle Center
Mon 05:52:13 PM 47.4547 -122.4142 161° South 294 338 8,600 -1,701 Descending Seattle Center
Mon 05:53:14 PM 47.3881 -122.3528 148° Southeast 288 331 6,200 -2,609 Descending Seattle Center
Mon 05:54:08 PM 47.3636 -122.2647 112° Southeast 239 275 3,600 -1,617 Descending Seattle Center
Mon 05:55:09 PM 47.3739 -122.2003 77° East 175 201 3,100 -590 Descending Seattle Center
Mon 05:56:10 PM 47.4250 -122.2178 347° North 172 198 2,400 -885 Descending Seattle Center
Mon 05:57:11 PM 47.4658 -122.2475 334° Northwest 155 178 1,300 -891 Descending Seattle Center
Mon 05:58:18 PM 47.5003 -122.2778 329° Northwest 125 144 500 -507 Descending Seattle Center
Mon 05:59:33 PM 47.5353 -122.3069 331° Northwest 131 151 100 -320 Descending Seattle Center
Mon 06:01:00 PM 47.5300 -122.3020 188° South  Level Estimated

Login

Don't have an account? Register now (free) for customized features, flight alerts, and more!